Time;durP1;ratioP1;P1;durP2;ratioP2;P2;SDS_P1;SDS_P2;PMS_P1;PMS_P2;Temp;Humidity;BMP_temperature;BMP_pressure;BME280_temperature;BME280_humidity;BME280_pressure;Samples;Min_cycle;Max_cycle;Signal;HPM_P1;HPM_P2
2022/03/20 00:02:46;;;;;;;37.03;16.90;;;;;3.90;97558.00;;;;8310317;28;20241;-69
2022/03/20 00:06:49;;;;;;;40.50;16.93;;;;;3.90;97543.00;;;;8301524;28;20328;-72
2022/03/20 00:10:57;;;;;;;40.77;17.97;;;;;3.80;97550.00;;;;8305006;28;20265;-67
2022/03/20 00:15:00;;;;;;;35.93;16.60;;;;;3.80;97551.00;;;;8305295;28;20606;-69
2022/03/20 00:19:05;;;;;;;45.43;19.03;;;;;3.80;97545.00;;;;8298750;28;20761;-69
2022/03/20 00:23:11;;;;;;;37.43;17.53;;;;;3.80;97545.00;;;;8310185;28;20231;-69
2022/03/20 00:27:16;;;;;;;36.80;16.70;;;;;3.70;97544.00;;;;8309328;28;20228;-71
2022/03/20 00:31:19;;;;;;;41.83;17.47;;;;;3.80;97543.00;;;;8300785;28;20234;-73
2022/03/20 00:35:22;;;;;;;44.50;18.00;;;;;3.80;97542.00;;;;8303557;28;20560;-70
2022/03/20 00:39:25;;;;;;;43.27;19.57;;;;;3.70;97544.00;;;;8297775;28;20242;-70
2022/03/20 00:43:29;;;;;;;40.23;18.47;;;;;3.80;97548.00;;;;8288066;28;20272;-70
2022/03/20 00:47:32;;;;;;;41.70;18.10;;;;;3.80;97545.00;;;;8294167;28;20224;-71
2022/03/20 00:51:35;;;;;;;42.37;18.93;;;;;3.80;97544.00;;;;8308454;28;20229;-75
2022/03/20 00:55:38;;;;;;;44.07;18.50;;;;;3.80;97542.00;;;;8307027;28;20235;-72
2022/03/20 00:59:43;;;;;;;43.63;19.23;;;;;3.80;97539.00;;;;8301893;28;20224;-70
2022/03/20 01:03:46;;;;;;;43.97;18.20;;;;;3.70;97544.00;;;;8298501;28;20260;-68
2022/03/20 01:07:49;;;;;;;47.63;19.73;;;;;3.70;97538.00;;;;8292869;28;20340;-74
2022/03/20 01:11:52;;;;;;;39.87;18.13;;;;;3.70;97545.00;;;;8313292;28;20235;-67
2022/03/20 01:15:56;;;;;;;42.50;20.17;;;;;3.60;97532.00;;;;8302086;28;20229;-70
2022/03/20 01:19:59;;;;;;;50.10;20.60;;;;;3.60;97537.00;;;;8302596;28;20579;-68
2022/03/20 01:24:02;;;;;;;44.90;20.93;;;;;3.50;97532.00;;;;8303346;28;20632;-70
2022/03/20 01:28:05;;;;;;;46.53;22.17;;;;;3.50;97527.00;;;;8300904;28;20236;-71
2022/03/20 01:32:10;;;;;;;47.80;21.03;;;;;3.50;97534.00;;;;8291102;28;20230;-68
2022/03/20 01:36:13;;;;;;;48.80;20.30;;;;;3.50;97537.00;;;;8285803;28;20254;-70
2022/03/20 01:40:16;;;;;;;47.40;21.03;;;;;3.60;97530.00;;;;8281725;28;20232;-70
2022/03/20 01:44:19;;;;;;;53.33;20.73;;;;;3.60;97523.00;;;;8295487;28;20222;-72
2022/03/20 01:48:24;;;;;;;46.03;20.37;;;;;3.60;97532.00;;;;8308247;28;20226;-67
2022/03/20 01:52:26;;;;;;;48.60;20.30;;;;;3.60;97532.00;;;;8282999;28;20587;-68
2022/03/20 01:56:32;;;;;;;48.50;20.63;;;;;3.60;97520.00;;;;8311679;28;20238;-70
2022/03/20 02:00:35;;;;;;;42.67;20.33;;;;;3.50;97522.00;;;;8307209;28;20243;-77
2022/03/20 02:04:41;;;;;;;53.90;22.27;;;;;3.50;97522.00;;;;8297174;28;20320;-73
2022/03/20 02:08:44;;;;;;;52.43;22.03;;;;;3.60;97520.00;;;;8306537;28;20265;-68
2022/03/20 02:12:46;;;;;;;57.93;22.10;;;;;3.60;97518.00;;;;8304111;28;20231;-69
2022/03/20 02:16:50;;;;;;;50.47;21.90;;;;;3.50;97517.00;;;;8299536;28;20227;-70
2022/03/20 02:20:57;;;;;;;50.17;21.87;;;;;3.50;97525.00;;;;8290411;28;20243;-68
2022/03/20 02:25:06;;;;;;;54.30;21.90;;;;;3.60;97521.00;;;;8289858;28;20236;-68
2022/03/20 02:29:09;;;;;;;56.63;22.57;;;;;3.60;97527.00;;;;8306543;28;20253;-71
2022/03/20 02:33:12;;;;;;;53.47;22.83;;;;;3.50;97528.00;;;;8308567;28;20259;-71
2022/03/20 02:37:15;;;;;;;57.23;23.67;;;;;3.50;97539.00;;;;8297621;28;20247;-68
2022/03/20 02:41:19;;;;;;;52.10;23.80;;;;;3.40;97530.00;;;;8299226;28;20722;-69
2022/03/20 02:45:28;;;;;;;59.10;24.50;;;;;3.30;97523.00;;;;8296940;28;20237;-70
2022/03/20 02:49:31;;;;;;;53.47;23.80;;;;;3.20;97526.00;;;;8293416;28;20236;-70
2022/03/20 02:53:36;;;;;;;54.20;23.43;;;;;3.10;97534.00;;;;8311248;28;20682;-69
2022/03/20 02:57:41;;;;;;;54.57;24.47;;;;;3.10;97535.00;;;;8294901;28;20236;-69
2022/03/20 03:01:44;;;;;;;58.40;24.40;;;;;3.00;97535.00;;;;8385874;22;20233;-71
2022/03/20 03:05:48;;;;;;;58.23;24.03;;;;;3.00;97535.00;;;;8369588;28;20655;-70
2022/03/20 03:18:32;;;;;;;47.60;22.03;;;;;3.00;97524.00;;;;8356240;28;20241;-69
2022/03/20 03:22:35;;;;;;;61.70;24.47;;;;;3.10;97540.00;;;;8369678;28;20226;-69
2022/03/20 03:26:38;;;;;;;49.37;21.83;;;;;3.10;97535.00;;;;8366409;28;20227;-70
2022/03/20 03:30:46;;;;;;;55.43;23.90;;;;;3.10;97533.00;;;;8351442;28;20570;-68
2022/03/20 03:39:10;;;;;;;51.03;24.17;;;;;3.00;97531.00;;;;8363499;28;20238;-69
2022/03/20 03:43:15;;;;;;;62.03;24.30;;;;;3.00;97535.00;;;;8350897;28;20241;-71
2022/03/20 03:47:20;;;;;;;50.07;21.30;;;;;3.00;97535.00;;;;8360146;28;20221;-69
2022/03/20 03:51:23;;;;;;;61.70;24.93;;;;;3.00;97531.00;;;;8353034;28;20234;-69
2022/03/20 03:55:26;;;;;;;60.17;24.43;;;;;3.00;97528.00;;;;8369625;28;20247;-70
2022/03/20 03:59:29;;;;;;;59.67;27.17;;;;;3.00;97528.00;;;;8370183;28;20230;-69
2022/03/20 04:03:33;;;;;;;59.63;26.60;;;;;3.00;97529.00;;;;8353102;28;20227;-70
2022/03/20 04:07:36;;;;;;;58.93;25.83;;;;;2.90;97532.00;;;;8363202;28;20617;-68
2022/03/20 04:11:39;;;;;;;58.73;25.83;;;;;2.80;97534.00;;;;8370432;28;20232;-69
2022/03/20 04:15:42;;;;;;;63.53;26.97;;;;;2.80;97528.00;;;;8365418;28;20691;-69
2022/03/20 04:19:46;;;;;;;63.57;27.03;;;;;2.80;97540.00;;;;8349170;28;20325;-69
2022/03/20 04:23:49;;;;;;;63.73;27.43;;;;;2.70;97544.00;;;;8363189;28;20225;-70
2022/03/20 04:27:56;;;;;;;59.20;26.60;;;;;2.60;97543.00;;;;8362032;28;20221;-69
2022/03/20 04:31:59;;;;;;;62.03;26.90;;;;;2.60;97550.00;;;;8353894;28;20216;-70
2022/03/20 04:36:03;;;;;;;60.97;25.47;;;;;2.50;97549.00;;;;8350367;28;20226;-69
2022/03/20 04:40:08;;;;;;;64.20;27.83;;;;;2.50;97556.00;;;;8355235;28;20249;-69
2022/03/20 04:44:12;;;;;;;68.60;27.57;;;;;2.40;97555.00;;;;8360428;28;20240;-70
2022/03/20 05:01:17;;;;;;;66.70;27.87;;;;;2.20;97580.00;;;;8352786;28;20233;-69
2022/03/20 05:05:20;;;;;;;69.03;27.50;;;;;2.10;97580.00;;;;8370892;28;20228;-69
2022/03/20 05:13:45;;;;;;;70.33;28.37;;;;;2.10;97582.00;;;;8365712;28;20220;-67
2022/03/20 05:17:48;;;;;;;65.20;27.87;;;;;2.10;97582.00;;;;8355886;28;20282;-68
2022/03/20 05:21:51;;;;;;;67.23;27.70;;;;;2.10;97588.00;;;;8353031;28;20238;-70
2022/03/20 05:25:55;;;;;;;62.70;27.53;;;;;2.20;97594.00;;;;8351175;28;20225;-69
2022/03/20 05:29:58;;;;;;;69.90;29.00;;;;;2.20;97595.00;;;;8354160;28;20767;-70
2022/03/20 05:34:02;;;;;;;63.93;28.70;;;;;2.30;97598.00;;;;8378458;28;20225;-70
2022/03/20 05:38:06;;;;;;;76.07;29.00;;;;;2.30;97598.00;;;;8367909;28;20267;-73
2022/03/20 05:42:14;;;;;;;67.70;28.17;;;;;2.30;97601.00;;;;8360529;28;20233;-70
2022/03/20 05:46:17;;;;;;;64.77;25.47;;;;;2.30;97604.00;;;;8354893;28;20231;-70
2022/03/20 05:50:21;;;;;;;64.47;25.87;;;;;2.30;97608.00;;;;8364272;28;20263;-69
2022/03/20 05:54:24;;;;;;;72.30;29.70;;;;;2.40;97612.00;;;;8364755;28;20236;-67
2022/03/20 05:58:28;;;;;;;65.63;28.80;;;;;2.50;97621.00;;;;8365797;28;20274;-69
2022/03/20 06:02:31;;;;;;;68.20;27.73;;;;;2.50;97622.00;;;;8356606;28;20240;-68
2022/03/20 06:06:35;;;;;;;69.67;30.03;;;;;2.60;97619.00;;;;8363308;28;20236;-70
2022/03/20 06:10:38;;;;;;;64.70;27.73;;;;;2.70;97616.00;;;;8354338;28;20272;-71
2022/03/20 06:14:43;;;;;;;61.33;25.73;;;;;2.80;97627.00;;;;8362587;28;20616;-69
2022/03/20 06:18:45;;;;;;;66.87;27.40;;;;;3.00;97632.00;;;;8364171;28;20240;-68
2022/03/20 06:22:49;;;;;;;65.67;27.10;;;;;3.10;97634.00;;;;8371116;28;20228;-71
2022/03/20 06:26:52;;;;;;;70.10;28.40;;;;;3.20;97632.00;;;;8367642;28;20231;-69
2022/03/20 06:30:57;;;;;;;62.63;26.30;;;;;3.30;97637.00;;;;8374934;28;20710;-69
2022/03/20 06:35:09;;;;;;;66.37;27.80;;;;;3.50;97639.00;;;;8370017;28;20241;-70
2022/03/20 06:39:13;;;;;;;68.20;29.17;;;;;3.60;97642.00;;;;8365163;28;20237;-67
2022/03/20 06:43:16;;;;;;;73.70;30.10;;;;;3.60;97655.00;;;;8369888;28;20227;-71
2022/03/20 06:47:23;;;;;;;65.80;29.00;;;;;3.70;97647.00;;;;8370506;28;20225;-69
2022/03/20 06:51:26;;;;;;;56.47;27.03;;;;;3.80;97651.00;;;;8362471;28;20239;-69
2022/03/20 06:55:30;;;;;;;64.87;27.80;;;;;4.00;97662.00;;;;8368151;28;20242;-72
2022/03/20 06:59:33;;;;;;;63.63;25.77;;;;;4.10;97663.00;;;;8358127;28;20227;-70
2022/03/20 07:03:38;;;;;;;59.83;24.23;;;;;4.30;97667.00;;;;8372881;28;20227;-67
2022/03/20 07:07:41;;;;;;;56.17;25.10;;;;;4.60;97677.00;;;;8369541;28;20231;-70
2022/03/20 07:11:44;;;;;;;44.83;21.47;;;;;4.80;97681.00;;;;8375973;28;20231;-72
2022/03/20 07:15:49;;;;;;;47.43;22.10;;;;;5.00;97685.00;;;;8369499;28;20233;-70
2022/03/20 07:19:54;;;;;;;44.10;21.03;;;;;5.30;97674.00;;;;8378619;28;20691;-70
2022/03/20 07:23:57;;;;;;;41.40;20.00;;;;;5.50;97678.00;;;;8368412;28;20257;-69
2022/03/20 07:32:21;;;;;;;44.03;19.77;;;;;5.90;97693.00;;;;8351895;28;20233;-69
2022/03/20 07:36:25;;;;;;;40.00;18.70;;;;;6.10;97689.00;;;;8371302;28;20671;-69
2022/03/20 07:40:28;;;;;;;39.30;19.10;;;;;6.30;97690.00;;;;8365546;28;20234;-69
2022/03/20 07:44:31;;;;;;;42.77;19.40;;;;;6.50;97689.00;;;;8369080;28;20767;-69
2022/03/20 07:48:35;;;;;;;33.87;17.53;;;;;6.70;97701.00;;;;8371942;28;20323;-70
2022/03/20 07:52:39;;;;;;;33.20;17.00;;;;;7.00;97692.00;;;;8363695;28;20739;-68
2022/03/20 07:56:42;;;;;;;33.37;15.30;;;;;7.20;97696.00;;;;8362417;28;20277;-68
2022/03/20 08:00:45;;;;;;;33.90;16.63;;;;;7.30;97693.00;;;;8366951;28;20236;-70
2022/03/20 08:04:49;;;;;;;33.33;16.37;;;;;7.60;97691.00;;;;8359954;28;20391;-71
2022/03/20 08:08:53;;;;;;;34.27;14.07;;;;;7.90;97697.00;;;;8356226;28;20504;-70
2022/03/20 08:12:57;;;;;;;30.93;15.13;;;;;8.10;97706.00;;;;8353865;28;20228;-69
2022/03/20 08:17:00;;;;;;;29.23;14.03;;;;;8.40;97702.00;;;;8348652;28;20228;-67
2022/03/20 08:21:02;;;;;;;27.57;13.70;;;;;8.60;97702.00;;;;8362507;28;20236;-69
2022/03/20 08:25:10;;;;;;;29.93;13.93;;;;;8.90;97699.00;;;;8356929;28;20751;-71
2022/03/20 08:29:13;;;;;;;31.50;14.45;;;;;9.10;97701.00;;;;8356747;28;20625;-65
2022/03/20 08:33:16;;;;;;;29.73;14.53;;;;;9.10;97708.00;;;;8366310;28;20230;-70
2022/03/20 08:37:19;;;;;;;23.50;12.57;;;;;9.20;97706.00;;;;8366350;28;20406;-65
2022/03/20 08:41:24;;;;;;;25.67;13.53;;;;;9.40;97695.00;;;;8344598;28;20306;-67
2022/03/20 08:45:29;;;;;;;25.90;13.03;;;;;9.70;97709.00;;;;8351088;28;20221;-68
2022/03/20 08:49:32;;;;;;;24.93;12.90;;;;;10.20;97708.00;;;;8360273;28;20250;-68
2022/03/20 08:53:35;;;;;;;25.93;13.97;;;;;10.50;97712.00;;;;8356333;28;20259;-66
2022/03/20 08:57:41;;;;;;;23.53;13.40;;;;;10.90;97705.00;;;;8357850;28;20231;-67
2022/03/20 09:01:44;;;;;;;25.15;13.70;;;;;11.20;97708.00;;;;8355415;28;20680;-68
2022/03/20 09:06:15;;;;;;;23.42;12.48;;;;;11.60;97712.00;;;;8359272;28;20317;-65
2022/03/20 09:10:52;;;;;;;23.52;12.75;;;;;12.00;97707.00;;;;8365332;28;20224;-68
2022/03/20 09:15:31;;;;;;;22.95;12.95;;;;;12.30;97715.00;;;;8364462;28;20218;-68
2022/03/20 09:20:05;;;;;;;24.20;13.02;;;;;12.60;97711.00;;;;8363748;28;20228;-68
2022/03/20 09:24:42;;;;;;;21.85;12.40;;;;;12.90;97711.00;;;;8354375;28;20224;-68
2022/03/20 09:29:18;;;;;;;23.02;13.10;;;;;13.40;97714.00;;;;8363692;28;20222;-69
2022/03/20 09:33:25;;;;;;;22.58;13.70;;;;;14.00;97717.00;;;;8363806;28;20220;-69
2022/03/20 09:37:28;;;;;;;23.70;13.40;;;;;14.50;97708.00;;;;8364697;28;20232;-67
2022/03/20 09:41:33;;;;;;;26.70;13.77;;;;;14.80;97711.00;;;;8363626;28;20225;-68
2022/03/20 09:46:07;;;;;;;22.90;12.32;;;;;15.10;97712.00;;;;8365139;28;20216;-67
2022/03/20 09:50:13;;;;;;;23.13;13.43;;;;;15.10;97721.00;;;;8364071;28;20225;-67
2022/03/20 09:54:47;;;;;;;23.65;12.35;;;;;15.30;97722.00;;;;8362292;28;20605;-68
2022/03/20 09:58:50;;;;;;;26.13;13.63;;;;;15.40;97727.00;;;;8364594;28;20579;-67
2022/03/20 10:02:53;;;;;;;23.85;13.52;;;;;15.40;97729.00;;;;8362271;28;20702;-67
2022/03/20 10:06:58;;;;;;;23.83;14.00;;;;;15.40;97726.00;;;;8364273;28;20262;-68
2022/03/20 10:11:15;;;;;;;24.58;12.52;;;;;15.50;97726.00;;;;8366105;28;20873;-67
2022/03/20 10:15:30;;;;;;;29.85;13.38;;;;;15.70;97728.00;;;;8368502;28;20543;-67
2022/03/20 10:19:37;;;;;;;22.70;12.23;;;;;16.00;97718.00;;;;8367479;28;20230;-68
2022/03/20 10:23:42;;;;;;;22.42;12.70;;;;;16.20;97728.00;;;;8361217;28;20232;-67
2022/03/20 10:27:57;;;;;;;24.70;13.75;;;;;16.00;97738.00;;;;8372070;28;20230;-68
2022/03/20 10:32:08;;;;;;;20.88;12.40;;;;;16.00;97723.00;;;;8367081;28;20226;-69
2022/03/20 10:36:14;;;;;;;24.25;13.93;;;;;15.60;97728.00;;;;8369942;28;20235;-69
2022/03/20 10:40:21;;;;;;;23.50;13.27;;;;;15.70;97727.00;;;;8370163;28;20273;-71
2022/03/20 10:44:26;;;;;;;20.40;12.10;;;;;15.70;97729.00;;;;8363291;28;20227;-70
2022/03/20 10:48:38;;;;;;;26.50;12.98;;;;;15.70;97730.00;;;;8356986;28;20293;-71
2022/03/20 10:52:41;;;;;;;30.27;15.63;;;;;15.90;97728.00;;;;8371783;28;20232;-70
2022/03/20 10:56:55;;;;;;;30.35;16.50;;;;;15.80;97732.00;;;;8367241;28;20231;-70
2022/03/20 11:00:58;;;;;;;22.77;13.10;;;;;15.50;97729.00;;;;8356397;28;20298;-71
2022/03/20 11:05:01;;;;;;;20.30;12.27;;;;;15.70;97739.00;;;;8358379;28;20235;-71
2022/03/20 11:09:04;;;;;;;21.33;12.20;;;;;15.80;97737.00;;;;8366302;28;20286;-70
2022/03/20 11:13:09;;;;;;;21.52;13.65;;;;;15.60;97723.00;;;;8371536;28;20254;-70
2022/03/20 11:17:17;;;;;;;20.20;12.50;;;;;15.40;97725.00;;;;8368593;28;20918;-71
2022/03/20 11:21:21;;;;;;;22.45;11.68;;;;;15.40;97731.00;;;;8364330;28;20243;-70
2022/03/20 11:25:26;;;;;;;22.77;12.05;;;;;15.50;97729.00;;;;8369500;28;20228;-71
2022/03/20 11:29:35;;;;;;;20.05;12.55;;;;;15.80;97741.00;;;;8371536;28;20227;-70
2022/03/20 11:33:39;;;;;;;24.77;13.18;;;;;15.70;97739.00;;;;8366111;28;20224;-72
2022/03/20 11:37:44;;;;;;;25.85;12.52;;;;;15.70;97731.00;;;;8374401;28;20727;-72
2022/03/20 11:41:47;;;;;;;22.05;11.88;;;;;15.70;97721.00;;;;8376566;28;20297;-70
2022/03/20 11:46:16;;;;;;;20.75;12.20;;;;;15.60;97717.00;;;;8364121;28;21090;-69
2022/03/20 11:50:21;;;;;;;19.52;11.13;;;;;15.80;97718.00;;;;8371451;28;20225;-71
2022/03/20 11:54:32;;;;;;;22.83;12.68;;;;;15.80;97723.00;;;;8368780;28;20692;-70
2022/03/20 11:58:37;;;;;;;25.55;12.60;;;;;15.70;97713.00;;;;8369265;28;20216;-70
2022/03/20 12:02:57;;;;;;;20.98;12.50;;;;;15.70;97706.00;;;;8350946;28;20689;-70
2022/03/20 12:07:14;;;;;;;18.80;11.68;;;;;15.70;97708.00;;;;8344575;28;20747;-68
2022/03/20 12:11:29;;;;;;;22.25;12.68;;;;;15.70;97708.00;;;;8358020;28;20228;-70
2022/03/20 12:15:33;;;;;;;21.73;12.27;;;;;15.80;97701.00;;;;8367989;28;20247;-70
2022/03/20 12:19:47;;;;;;;23.90;12.68;;;;;15.70;97706.00;;;;8368474;28;20333;-73
2022/03/20 12:23:51;;;;;;;18.92;11.32;;;;;15.60;97706.00;;;;8367901;28;20870;-66
2022/03/20 12:27:54;;;;;;;21.05;11.65;;;;;15.40;97704.00;;;;8371524;28;20220;-70
2022/03/20 12:31:59;;;;;;;22.10;12.13;;;;;15.20;97699.00;;;;8358896;28;20226;-69
2022/03/20 12:36:26;;;;;;;20.48;11.23;;;;;15.10;97695.00;;;;8356165;28;20247;-70
2022/03/20 12:40:31;;;;;;;18.25;11.43;;;;;15.10;97694.00;;;;8355536;28;20235;-68
2022/03/20 12:44:54;;;;;;;19.92;11.80;;;;;15.10;97692.00;;;;8355694;28;20224;-69
2022/03/20 12:48:58;;;;;;;23.33;12.57;;;;;15.10;97682.00;;;;8373506;28;20811;-71
2022/03/20 12:53:07;;;;;;;20.40;11.48;;;;;15.00;97691.00;;;;8353772;28;20244;-68
2022/03/20 12:57:10;;;;;;;20.05;10.98;;;;;15.00;97689.00;;;;8360664;28;20228;-69
2022/03/20 13:01:13;;;;;;;22.85;11.90;;;;;15.00;97694.00;;;;8371278;28;20597;-70
2022/03/20 13:05:16;;;;;;;18.17;12.05;;;;;14.80;97685.00;;;;8363868;28;20239;-68
2022/03/20 13:09:20;;;;;;;17.80;10.52;;;;;15.00;97684.00;;;;8353395;28;20617;-68
2022/03/20 13:13:28;;;;;;;18.48;11.13;;;;;15.10;97677.00;;;;8354692;28;20285;-68
2022/03/20 13:17:34;;;;;;;18.52;11.57;;;;;15.20;97682.00;;;;8351692;28;20228;-69
2022/03/20 13:21:49;;;;;;;18.50;11.43;;;;;15.10;97677.00;;;;8364799;28;20236;-70
2022/03/20 13:25:55;;;;;;;21.52;11.05;;;;;15.10;97675.00;;;;8363663;28;20236;-69
2022/03/20 13:30:00;;;;;;;18.25;10.55;;;;;15.00;97674.00;;;;8358114;28;20227;-68
2022/03/20 13:34:03;;;;;;;16.75;10.90;;;;;15.10;97682.00;;;;8355423;28;20231;-70
2022/03/20 13:38:06;;;;;;;21.65;12.55;;;;;15.10;97667.00;;;;8361687;28;20750;-66
2022/03/20 13:42:16;;;;;;;17.45;9.95;;;;;15.00;97668.00;;;;8355798;28;20593;-69
2022/03/20 13:46:23;;;;;;;18.85;10.82;;;;;14.90;97671.00;;;;8363664;28;20231;-71
2022/03/20 13:50:27;;;;;;;18.52;10.98;;;;;14.90;97668.00;;;;8371396;28;21117;-70
2022/03/20 13:54:31;;;;;;;17.92;10.95;;;;;15.10;97660.00;;;;8380625;28;20726;-69
2022/03/20 13:58:36;;;;;;;19.08;10.80;;;;;15.20;97655.00;;;;8369524;28;20215;-69
2022/03/20 14:02:41;;;;;;;17.42;10.45;;;;;15.20;97663.00;;;;8365312;28;20232;-69
2022/03/20 14:06:46;;;;;;;17.05;10.05;;;;;15.50;97661.00;;;;8375891;28;20315;-69
2022/03/20 14:10:52;;;;;;;16.08;10.15;;;;;15.80;97659.00;;;;8368782;28;20219;-71
2022/03/20 14:14:58;;;;;;;18.13;10.80;;;;;16.10;97661.00;;;;8367777;28;20232;-69
2022/03/20 14:19:07;;;;;;;21.10;11.43;;;;;16.30;97663.00;;;;8366441;28;20766;-67
2022/03/20 14:23:12;;;;;;;17.20;10.38;;;;;16.50;97669.00;;;;8373579;28;20236;-68
2022/03/20 14:27:15;;;;;;;17.55;11.13;;;;;16.60;97674.00;;;;8377742;28;20238;-67
2022/03/20 14:40:10;;;;;;;16.02;10.27;;;;;16.80;97678.00;;;;8366861;28;20278;-78
2022/03/20 14:44:16;;;;;;;15.48;10.13;;;;;16.70;97667.00;;;;8361762;28;20228;-69
2022/03/20 14:48:20;;;;;;;15.52;9.63;;;;;16.60;97673.00;;;;8357575;28;20232;-74
2022/03/20 14:52:23;;;;;;;14.95;9.00;;;;;16.40;97661.00;;;;8368713;28;20229;-70
2022/03/20 14:56:26;;;;;;;15.32;9.60;;;;;16.40;97662.00;;;;8364976;28;20224;-67
2022/03/20 15:00:29;;;;;;;23.55;10.77;;;;;16.50;97660.00;;;;8370996;28;20224;-72
2022/03/20 15:04:34;;;;;;;16.30;9.90;;;;;16.50;97656.00;;;;8367903;28;20235;-69
2022/03/20 15:13:07;;;;;;;16.33;10.13;;;;;16.40;97660.00;;;;8361366;28;20259;-71
2022/03/20 15:17:12;;;;;;;16.80;9.55;;;;;16.50;97653.00;;;;8361457;28;20514;-65
2022/03/20 15:21:16;;;;;;;15.82;9.80;;;;;16.50;97655.00;;;;8371725;28;20219;-68
2022/03/20 15:25:19;;;;;;;14.13;9.50;;;;;16.50;97656.00;;;;8370602;28;20236;-70
2022/03/20 15:29:23;;;;;;;17.02;10.27;;;;;16.60;97660.00;;;;8368093;28;20216;-69
2022/03/20 15:33:26;;;;;;;15.80;10.07;;;;;16.60;97650.00;;;;8369157;28;20231;-69
2022/03/20 15:37:31;;;;;;;26.30;10.45;;;;;16.30;97651.00;;;;8361179;28;20678;-68
2022/03/20 15:41:35;;;;;;;18.38;10.27;;;;;15.90;97652.00;;;;8374142;28;20665;-73
2022/03/20 15:45:38;;;;;;;14.68;9.70;;;;;15.70;97653.00;;;;8363555;28;20236;-68
2022/03/20 15:49:41;;;;;;;15.52;9.65;;;;;15.50;97653.00;;;;8369506;28;20234;-66
2022/03/20 15:53:45;;;;;;;14.85;10.48;;;;;15.40;97656.00;;;;8368074;28;20795;-67
2022/03/20 15:57:48;;;;;;;18.30;10.38;;;;;15.30;97654.00;;;;8358068;28;20224;-71
2022/03/20 16:01:51;;;;;;;15.80;9.10;;;;;15.20;97656.00;;;;8363945;28;20217;-68
2022/03/20 16:05:55;;;;;;;15.80;9.75;;;;;15.20;97657.00;;;;8370635;28;20310;-69
2022/03/20 16:09:59;;;;;;;17.80;10.02;;;;;15.20;97652.00;;;;8367945;28;20797;-65
2022/03/20 16:14:02;;;;;;;61.67;25.73;;;;;15.20;97648.00;;;;8365557;28;20236;-69
2022/03/20 16:18:07;;;;;;;24.33;12.90;;;;;15.30;97657.00;;;;8363576;28;20220;-73
2022/03/20 16:22:10;;;;;;;17.75;9.85;;;;;15.10;97657.00;;;;8364484;28;20586;-70
2022/03/20 16:30:34;;;;;;;16.73;9.20;;;;;14.80;97663.00;;;;8367437;28;20219;-69
2022/03/20 16:34:38;;;;;;;15.18;9.30;;;;;14.70;97663.00;;;;8363004;28;20585;-69
2022/03/20 16:38:43;;;;;;;15.00;9.25;;;;;14.50;97667.00;;;;8361382;28;20224;-69
2022/03/20 16:42:47;;;;;;;14.85;9.15;;;;;14.20;97666.00;;;;8359271;28;20240;-67
2022/03/20 16:46:51;;;;;;;17.10;9.00;;;;;14.00;97660.00;;;;8368392;28;20269;-70
2022/03/20 16:50:56;;;;;;;14.43;8.70;;;;;13.80;97660.00;;;;8372978;28;20234;-68
2022/03/20 16:54:59;;;;;;;17.08;9.00;;;;;13.50;97663.00;;;;8374773;28;20253;-68
2022/03/20 16:59:04;;;;;;;22.75;10.07;;;;;13.30;97671.00;;;;8373383;28;20241;-69
2022/03/20 17:03:07;;;;;;;21.98;12.02;;;;;13.10;97666.00;;;;8375690;28;20233;-69
2022/03/20 17:07:10;;;;;;;20.70;10.30;;;;;12.80;97664.00;;;;8369087;28;20222;-68
2022/03/20 17:11:14;;;;;;;15.27;8.20;;;;;12.60;97666.00;;;;8372890;28;20234;-69
2022/03/20 17:15:18;;;;;;;20.02;10.02;;;;;12.30;97669.00;;;;8372272;28;20228;-68
2022/03/20 17:19:22;;;;;;;18.45;10.57;;;;;12.10;97670.00;;;;8375492;28;20230;-67
2022/03/20 17:23:25;;;;;;;19.05;10.00;;;;;11.90;97681.00;;;;8372144;28;20236;-70
2022/03/20 17:27:28;;;;;;;14.60;8.88;;;;;11.70;97674.00;;;;8371657;28;20225;-69
2022/03/20 17:31:32;;;;;;;19.70;10.50;;;;;11.50;97667.00;;;;8377079;28;20648;-72
2022/03/20 17:35:37;;;;;;;20.30;10.10;;;;;11.30;97681.00;;;;8375890;28;20220;-66
2022/03/20 17:39:40;;;;;;;22.45;10.45;;;;;11.10;97683.00;;;;8363986;28;20227;-69
2022/03/20 17:43:44;;;;;;;25.83;12.65;;;;;10.90;97686.00;;;;8365074;28;20242;-68
2022/03/20 17:47:48;;;;;;;22.42;10.23;;;;;10.70;97691.00;;;;8371170;28;20224;-70
2022/03/20 17:51:56;;;;;;;16.10;9.57;;;;;10.50;97692.00;;;;8370946;28;20314;-69
2022/03/20 17:55:59;;;;;;;22.33;9.57;;;;;10.40;97689.00;;;;8376458;28;20319;-70
2022/03/20 18:00:04;;;;;;;18.38;10.13;;;;;10.20;97702.00;;;;8373904;28;20254;-68
2022/03/20 18:08:34;;;;;;;17.37;8.87;;;;;9.90;97706.00;;;;8349110;28;20261;-69
2022/03/20 18:12:39;;;;;;;19.67;9.77;;;;;9.70;97703.00;;;;8367086;28;20224;-71
2022/03/20 18:16:41;;;;;;;13.95;8.10;;;;;9.60;97707.00;;;;8368570;28;20693;-70
2022/03/20 18:20:46;;;;;;;16.93;8.17;;;;;9.60;97710.00;;;;8360628;28;20241;-70
2022/03/20 18:24:49;;;;;;;16.27;8.93;;;;;9.50;97716.00;;;;8363072;28;20236;-69
2022/03/20 18:28:52;;;;;;;17.27;8.67;;;;;9.40;97710.00;;;;8375029;28;20231;-72
2022/03/20 18:32:56;;;;;;;17.67;9.27;;;;;9.30;97712.00;;;;8373817;28;20227;-71
2022/03/20 18:37:01;;;;;;;18.75;9.13;;;;;9.20;97715.00;;;;8367577;28;20292;-75
2022/03/20 18:41:06;;;;;;;22.37;9.67;;;;;9.10;97714.00;;;;8371792;28;20227;-71
2022/03/20 18:45:10;;;;;;;19.23;8.93;;;;;9.10;97722.00;;;;8375589;28;20235;-71
2022/03/20 18:49:14;;;;;;;15.07;8.70;;;;;9.00;97716.00;;;;8370145;28;20220;-69
2022/03/20 18:53:19;;;;;;;17.03;9.00;;;;;8.90;97709.00;;;;8370529;28;20293;-68
2022/03/20 18:57:22;;;;;;;17.57;8.43;;;;;8.80;97714.00;;;;8359630;28;20314;-70
2022/03/20 19:01:25;;;;;;;18.23;9.13;;;;;8.70;97720.00;;;;8367021;28;20227;-72
2022/03/20 19:05:28;;;;;;;17.20;8.40;;;;;8.60;97724.00;;;;8369205;28;20232;-72
2022/03/20 19:09:35;;;;;;;17.57;8.87;;;;;8.50;97721.00;;;;8370997;28;20231;-75
2022/03/20 19:13:39;;;;;;;18.80;9.63;;;;;8.40;97722.00;;;;8371795;28;20228;-68
2022/03/20 19:17:46;;;;;;;18.87;8.57;;;;;8.30;97721.00;;;;8367565;28;20791;-71
2022/03/20 19:21:50;;;;;;;15.27;8.73;;;;;8.10;97719.00;;;;8363360;28;20235;-70
2022/03/20 19:25:55;;;;;;;15.20;8.17;;;;;8.00;97715.00;;;;8368490;28;20718;-73
2022/03/20 19:29:58;;;;;;;16.47;8.80;;;;;7.90;97720.00;;;;8367119;28;20220;-75
2022/03/20 19:42:44;;;;;;;16.63;8.40;;;;;7.40;97717.00;;;;8370216;28;20231;-75
2022/03/20 19:46:48;;;;;;;15.93;9.40;;;;;7.20;97715.00;;;;8367197;28;20235;-69
2022/03/20 19:50:54;;;;;;;16.03;8.70;;;;;7.10;97715.00;;;;8367148;28;20235;-74
2022/03/20 19:54:58;;;;;;;16.17;9.10;;;;;7.10;97712.00;;;;8371969;28;20326;-70
2022/03/20 19:59:03;;;;;;;21.97;9.93;;;;;7.10;97711.00;;;;8368077;28;20403;-69
2022/03/20 20:03:06;;;;;;;24.23;10.77;;;;;7.00;97716.00;;;;8374172;28;20573;-69
2022/03/20 20:07:09;;;;;;;19.40;9.97;;;;;7.00;97712.00;;;;8370933;28;20230;-73
2022/03/20 20:11:12;;;;;;;17.83;9.60;;;;;6.90;97718.00;;;;8370938;28;20242;-72
2022/03/20 20:15:17;;;;;;;16.03;9.83;;;;;6.80;97717.00;;;;8351157;28;20315;-72
2022/03/20 20:19:20;;;;;;;15.87;9.23;;;;;6.70;97715.00;;;;8360717;28;20787;-70
2022/03/20 20:23:23;;;;;;;18.97;9.43;;;;;6.70;97724.00;;;;8359104;28;20288;-70
2022/03/20 20:27:27;;;;;;;24.17;11.10;;;;;6.70;97731.00;;;;8359158;28;20372;-71
2022/03/20 20:31:35;;;;;;;24.33;10.97;;;;;6.60;97730.00;;;;8356104;28;20227;-69
2022/03/20 20:35:38;;;;;;;19.27;9.80;;;;;6.60;97730.00;;;;8365009;28;20243;-71
2022/03/20 20:39:42;;;;;;;15.67;8.80;;;;;6.60;97726.00;;;;8364902;28;21163;-69
2022/03/20 20:43:45;;;;;;;16.70;9.50;;;;;6.60;97725.00;;;;8362877;28;20231;-69
2022/03/20 20:47:49;;;;;;;18.80;9.43;;;;;6.60;97725.00;;;;8362304;28;20227;-69
2022/03/20 20:51:55;;;;;;;17.40;9.83;;;;;6.60;97725.00;;;;8369316;28;20228;-71
2022/03/20 20:55:59;;;;;;;18.93;9.30;;;;;6.50;97737.00;;;;8370025;28;20621;-71
2022/03/20 21:00:02;;;;;;;18.73;10.60;;;;;6.40;97730.00;;;;8372082;28;20223;-72
2022/03/20 21:04:09;;;;;;;25.27;11.80;;;;;6.20;97723.00;;;;8366808;28;20231;-69
2022/03/20 21:12:32;;;;;;;24.03;10.67;;;;;6.00;97723.00;;;;8373632;28;20231;-72
2022/03/20 21:16:37;;;;;;;18.93;10.10;;;;;5.90;97721.00;;;;8366909;28;20232;-73
2022/03/20 21:20:41;;;;;;;23.67;11.87;;;;;5.90;97730.00;;;;8370822;28;20217;-69